logo dgac
Lunes 20 de Mayo del 2019
Buscar por aerodromo o helipuerto
Ingrese nombre de aeródromo, localidad o designador OACI:
TAF: TAF SCTB 201140Z 2012/2024 21004KT 8000 SCT080 BKN180 TX13/2018Z TN03/2012Z BECMG 2017/2019 SCT040 BKN080 TEMPO 2020/2100 24004KT 7000 -SHRA SCT030 BKN050
TAF del 20/05/2019 a las 11:40 UTC
Período de validez: desde el 20 a las 12:00 UTC hasta el 20 a las 24:00 UTC
Viento: dirección 210 grados, velocidad 4 nudos
Visibilidad: 8000 metros
Nubes: Nubosidad parcial a 8000 pies sobre el nivel del aeródromo
Nubes: Nublado a 18000 pies sobre el nivel del aeródromo
Temperatura máxima: 13ºC el 20 a las 18:00 UTC
Temperatura mínima: 3ºC el 20 a las 12:00 UTC
Se espera un cambio entre las 17:00 UTC del 20 y las 19:00 UTC del 20, :
Nubes: Nubosidad parcial a 4000 pies sobre el nivel del aeródromo
Nubes: Nublado a 8000 pies sobre el nivel del aeródromo
Se espera en forma temporal entre las 20:00 UTC del 20 y las 00:00 UTC del 21:
Viento: dirección 240 grados, velocidad 4 nudos
Visibilidad: 7000 metros
Débil ChubascosLluvia
Nubes: Nubosidad parcial a 3000 pies sobre el nivel del aeródromo
Nubes: Nublado a 5000 pies sobre el nivel del aeródromo